Time;durP1;ratioP1;P1;durP2;ratioP2;P2;SDS_P1;SDS_P2;PMS_P1;PMS_P2;Temp;Humidity;BMP_temperature;BMP_pressure;BME280_temperature;BME280_humidity;BME280_pressure;Samples;Min_cycle;Max_cycle;Signal;HPM_P1;HPM_P2
2023/05/28 00:01:48;;;;;;;10.25;4.45;;;;;;;;;;5057819;28;20053;-54
2023/05/28 00:04:15;;;;;;;13.15;4.50;;;;;;;;;;5061798;28;20053;-57
2023/05/28 00:06:42;;;;;;;13.32;3.72;;;;;;;;;;5061863;28;20091;-59
2023/05/28 00:09:09;;;;;;;9.05;3.97;;;;;;;;;;5060301;28;20503;-58
2023/05/28 00:11:35;;;;;;;9.02;3.75;;;;;;;;;;5055595;28;20081;-58
2023/05/28 00:14:02;;;;;;;9.70;4.53;;;;;;;;;;5057981;28;20059;-59
2023/05/28 00:16:28;;;;;;;12.90;4.13;;;;;;;;;;5061839;28;20121;-59
2023/05/28 00:18:55;;;;;;;9.90;4.55;;;;;;;;;;5065083;28;20052;-54
2023/05/28 00:21:21;;;;;;;9.68;5.93;;;;;;;;;;5059009;28;20064;-57
2023/05/28 00:23:47;;;;;;;15.30;11.68;;;;;;;;;;5062419;28;20107;-56
2023/05/28 00:26:14;;;;;;;13.15;7.97;;;;;;;;;;5064728;28;20099;-58
2023/05/28 00:28:40;;;;;;;12.82;5.93;;;;;;;;;;5061911;28;20063;-57
2023/05/28 00:31:06;;;;;;;8.15;5.15;;;;;;;;;;5063059;28;20107;-58
2023/05/28 00:33:33;;;;;;;11.70;4.78;;;;;;;;;;5051833;28;20061;-59
2023/05/28 00:35:59;;;;;;;11.52;7.15;;;;;;;;;;5052518;28;20411;-58
2023/05/28 00:38:26;;;;;;;8.85;3.83;;;;;;;;;;5063601;28;20059;-58
2023/05/28 00:40:54;;;;;;;10.60;5.05;;;;;;;;;;5055850;28;20076;-57
2023/05/28 00:43:20;;;;;;;14.80;5.07;;;;;;;;;;5054995;28;20115;-59
2023/05/28 00:45:49;;;;;;;12.90;5.30;;;;;;;;;;5061575;28;20056;-57
2023/05/28 00:48:16;;;;;;;11.25;4.55;;;;;;;;;;5053465;28;20573;-58
2023/05/28 00:50:43;;;;;;;10.13;4.47;;;;;;;;;;5064240;28;20132;-56
2023/05/28 00:53:10;;;;;;;11.88;4.55;;;;;;;;;;5063815;28;20057;-58
2023/05/28 00:55:37;;;;;;;7.82;4.50;;;;;;;;;;5060901;28;20665;-58
2023/05/28 00:58:05;;;;;;;11.38;3.85;;;;;;;;;;5061812;28;20049;-57
2023/05/28 01:00:33;;;;;;;9.10;4.13;;;;;;;;;;5057484;28;20053;-59
2023/05/28 01:03:00;;;;;;;8.63;4.03;;;;;;;;;;5055425;28;20057;-58
2023/05/28 01:05:26;;;;;;;10.75;4.65;;;;;;;;;;5050702;28;20084;-57
2023/05/28 01:07:53;;;;;;;10.35;4.45;;;;;;;;;;5060558;28;20056;-57
2023/05/28 01:10:19;;;;;;;13.38;5.68;;;;;;;;;;5051214;28;20060;-58
2023/05/28 01:12:46;;;;;;;7.50;3.92;;;;;;;;;;5063103;28;20061;-58
2023/05/28 01:15:12;;;;;;;12.25;3.90;;;;;;;;;;5059638;28;20057;-57
2023/05/28 01:17:39;;;;;;;9.52;4.70;;;;;;;;;;5059291;28;20045;-57
2023/05/28 01:20:10;;;;;;;8.75;3.83;;;;;;;;;;5063618;28;20053;-59
2023/05/28 01:22:38;;;;;;;6.90;4.10;;;;;;;;;;5062116;28;20045;-59
2023/05/28 01:25:09;;;;;;;7.07;3.53;;;;;;;;;;5064501;28;20136;-59
2023/05/28 01:27:42;;;;;;;7.03;3.65;;;;;;;;;;5062917;28;20061;-59
2023/05/28 01:30:09;;;;;;;9.27;4.40;;;;;;;;;;5060084;28;20133;-59
2023/05/28 01:32:36;;;;;;;6.88;3.88;;;;;;;;;;5056656;28;20057;-57
2023/05/28 01:35:03;;;;;;;11.32;5.13;;;;;;;;;;5057211;28;20063;-58
2023/05/28 01:37:33;;;;;;;12.13;4.80;;;;;;;;;;5052377;28;20905;-58
2023/05/28 01:40:02;;;;;;;12.88;4.18;;;;;;;;;;5061681;28;20454;-58
2023/05/28 01:42:32;;;;;;;9.25;3.70;;;;;;;;;;5050444;28;20065;-58
2023/05/28 01:44:59;;;;;;;11.63;4.70;;;;;;;;;;5063199;28;20061;-57
2023/05/28 01:47:26;;;;;;;9.48;4.53;;;;;;;;;;5053763;28;21294;-58
2023/05/28 01:49:52;;;;;;;9.63;4.47;;;;;;;;;;5050350;28;20511;-58
2023/05/28 01:52:19;;;;;;;12.90;4.45;;;;;;;;;;5063185;28;20057;-59
2023/05/28 01:54:45;;;;;;;9.90;4.35;;;;;;;;;;5062610;28;20052;-54
2023/05/28 01:57:11;;;;;;;9.55;4.70;;;;;;;;;;5063646;28;20053;-57
2023/05/28 01:59:38;;;;;;;11.73;4.25;;;;;;;;;;5061086;28;20082;-56
2023/05/28 02:02:05;;;;;;;9.20;3.85;;;;;;;;;;5056591;28;20050;-56
2023/05/28 02:04:32;;;;;;;9.10;4.15;;;;;;;;;;5062921;28;20062;-58
2023/05/28 02:06:58;;;;;;;8.70;4.00;;;;;;;;;;5053648;28;20053;-57
2023/05/28 02:09:24;;;;;;;12.13;4.20;;;;;;;;;;5066899;28;20583;-57
2023/05/28 02:11:51;;;;;;;13.15;4.40;;;;;;;;;;5047102;28;20056;-57
2023/05/28 02:14:17;;;;;;;10.75;4.63;;;;;;;;;;5063611;28;20103;-56
2023/05/28 02:16:49;;;;;;;8.93;4.40;;;;;;;;;;5054829;28;20465;-57
2023/05/28 02:19:17;;;;;;;9.43;4.82;;;;;;;;;;5058326;28;20057;-57
2023/05/28 02:21:43;;;;;;;8.50;4.40;;;;;;;;;;5061946;28;20484;-59
2023/05/28 02:24:10;;;;;;;11.02;4.68;;;;;;;;;;5050524;28;20060;-57
2023/05/28 02:26:36;;;;;;;9.45;4.55;;;;;;;;;;5048839;28;20131;-57
2023/05/28 02:29:02;;;;;;;13.32;4.45;;;;;;;;;;5057399;28;20057;-58
2023/05/28 02:31:29;;;;;;;12.07;4.55;;;;;;;;;;5052638;28;20060;-56
2023/05/28 02:33:55;;;;;;;10.13;4.63;;;;;;;;;;5057742;28;20115;-57
2023/05/28 02:36:22;;;;;;;14.00;4.60;;;;;;;;;;5049634;28;20053;-58
2023/05/28 02:38:49;;;;;;;10.40;5.28;;;;;;;;;;5077074;28;20052;-54
2023/05/28 02:41:16;;;;;;;9.55;4.72;;;;;;;;;;5062075;28;20048;-58
2023/05/28 02:43:43;;;;;;;10.63;4.75;;;;;;;;;;5060419;28;20160;-57
2023/05/28 02:46:10;;;;;;;10.93;4.80;;;;;;;;;;5045716;28;20075;-57
2023/05/28 02:48:36;;;;;;;10.85;4.88;;;;;;;;;;5059330;28;20052;-59
2023/05/28 02:51:03;;;;;;;10.35;4.18;;;;;;;;;;5055414;28;20060;-58
2023/05/28 02:53:31;;;;;;;13.35;5.75;;;;;;;;;;5061156;28;20131;-56
2023/05/28 02:55:57;;;;;;;8.90;4.78;;;;;;;;;;5062696;28;20053;-59
2023/05/28 02:58:24;;;;;;;8.38;4.32;;;;;;;;;;5054519;28;20491;-59
2023/05/28 03:00:50;;;;;;;7.72;4.25;;;;;;;;;;5060547;28;20061;-59
2023/05/28 03:03:17;;;;;;;15.77;5.00;;;;;;;;;;5048984;28;20791;-58
2023/05/28 03:05:44;;;;;;;15.52;4.90;;;;;;;;;;5060164;28;20055;-59
2023/05/28 03:08:10;;;;;;;11.88;4.97;;;;;;;;;;5056884;28;20050;-58
2023/05/28 03:10:37;;;;;;;10.93;4.55;;;;;;;;;;5062302;28;20128;-59
2023/05/28 03:13:03;;;;;;;10.68;5.40;;;;;;;;;;5059548;28;20136;-59
2023/05/28 03:15:31;;;;;;;10.65;4.57;;;;;;;;;;5062415;28;20053;-58
2023/05/28 03:17:57;;;;;;;11.50;4.80;;;;;;;;;;5060190;28;20052;-58
2023/05/28 03:20:24;;;;;;;8.45;4.47;;;;;;;;;;5057391;28;20065;-58
2023/05/28 03:22:54;;;;;;;12.73;4.65;;;;;;;;;;5054732;28;20080;-59
2023/05/28 03:25:21;;;;;;;12.40;4.60;;;;;;;;;;5061445;28;20522;-55
2023/05/28 03:27:47;;;;;;;11.25;4.75;;;;;;;;;;5054169;28;20068;-57
2023/05/28 03:30:14;;;;;;;12.77;4.93;;;;;;;;;;5058617;28;20157;-59
2023/05/28 03:32:40;;;;;;;8.80;4.28;;;;;;;;;;5056142;28;20057;-59
2023/05/28 03:35:07;;;;;;;10.13;5.25;;;;;;;;;;5044892;28;20654;-58
2023/05/28 03:37:34;;;;;;;10.55;4.90;;;;;;;;;;5052888;28;20053;-59
2023/05/28 03:40:00;;;;;;;11.57;5.53;;;;;;;;;;5053209;28;20146;-59
2023/05/28 03:42:26;;;;;;;10.52;5.53;;;;;;;;;;5044194;28;20057;-60
2023/05/28 03:44:53;;;;;;;12.02;4.32;;;;;;;;;;5042897;28;20057;-58
2023/05/28 03:47:19;;;;;;;8.77;4.35;;;;;;;;;;5050037;28;20077;-57
2023/05/28 03:49:45;;;;;;;10.50;4.82;;;;;;;;;;5062450;28;20130;-59
2023/05/28 03:52:12;;;;;;;10.60;4.65;;;;;;;;;;5059093;28;20127;-58
2023/05/28 03:54:38;;;;;;;9.20;5.40;;;;;;;;;;5051872;28;20137;-59
2023/05/28 03:57:05;;;;;;;10.35;4.78;;;;;;;;;;5048123;28;20061;-59
2023/05/28 03:59:32;;;;;;;10.35;4.80;;;;;;;;;;5059122;28;20296;-57
2023/05/28 04:01:58;;;;;;;11.85;4.90;;;;;;;;;;5056818;28;20053;-59
2023/05/28 04:04:25;;;;;;;8.88;5.13;;;;;;;;;;5059123;28;20064;-59
2023/05/28 04:06:51;;;;;;;12.00;4.68;;;;;;;;;;5057902;28;20057;-59
2023/05/28 04:09:18;;;;;;;15.68;7.03;;;;;;;;;;5055798;28;20045;-59
2023/05/28 04:11:44;;;;;;;10.80;4.65;;;;;;;;;;5063363;28;20052;-59
2023/05/28 04:14:11;;;;;;;10.05;4.85;;;;;;;;;;5064622;28;20061;-59
2023/05/28 04:16:37;;;;;;;7.82;4.85;;;;;;;;;;5056572;28;20123;-59
2023/05/28 04:19:04;;;;;;;11.70;4.95;;;;;;;;;;5063512;28;20056;-58
2023/05/28 04:21:30;;;;;;;14.63;5.03;;;;;;;;;;5059387;28;20652;-58
2023/05/28 04:23:56;;;;;;;11.02;4.68;;;;;;;;;;5062463;28;20119;-58
2023/05/28 04:26:23;;;;;;;7.65;3.92;;;;;;;;;;5055995;28;20060;-58
2023/05/28 04:28:50;;;;;;;11.70;4.68;;;;;;;;;;5058985;28;20053;-58
2023/05/28 04:31:17;;;;;;;12.23;5.20;;;;;;;;;;5048548;28;20071;-57
2023/05/28 04:33:46;;;;;;;10.73;4.78;;;;;;;;;;5063732;28;20514;-56
2023/05/28 04:36:15;;;;;;;9.23;4.30;;;;;;;;;;5064189;28;20053;-58
2023/05/28 04:38:41;;;;;;;13.45;4.75;;;;;;;;;;5061898;28;20052;-59
2023/05/28 04:41:08;;;;;;;9.25;4.20;;;;;;;;;;5045057;28;20531;-58
2023/05/28 04:43:36;;;;;;;10.65;4.70;;;;;;;;;;5059289;28;20060;-58
2023/05/28 04:46:03;;;;;;;9.70;4.38;;;;;;;;;;5052469;28;20060;-57
2023/05/28 04:48:35;;;;;;;10.55;4.50;;;;;;;;;;5057604;28;20103;-59
2023/05/28 04:51:05;;;;;;;9.32;4.28;;;;;;;;;;5064381;28;20080;-58
2023/05/28 04:53:33;;;;;;;11.50;5.10;;;;;;;;;;5044861;28;20148;-58
2023/05/28 04:56:00;;;;;;;8.35;4.65;;;;;;;;;;5062068;28;20155;-58
2023/05/28 04:58:26;;;;;;;10.30;4.32;;;;;;;;;;5061534;28;20057;-58
2023/05/28 05:00:53;;;;;;;11.20;5.30;;;;;;;;;;5054435;28;21084;-58
2023/05/28 05:03:19;;;;;;;9.27;4.53;;;;;;;;;;5064898;28;20061;-59
2023/05/28 05:05:47;;;;;;;8.10;4.47;;;;;;;;;;5049092;28;20054;-59
2023/05/28 05:08:13;;;;;;;6.63;3.97;;;;;;;;;;5056526;28;20064;-59
2023/05/28 05:10:40;;;;;;;6.68;4.55;;;;;;;;;;5062627;28;20048;-57
2023/05/28 05:13:06;;;;;;;8.50;5.35;;;;;;;;;;5059983;28;20148;-58
2023/05/28 05:15:33;;;;;;;6.82;4.32;;;;;;;;;;5054775;28;20053;-55
2023/05/28 05:17:59;;;;;;;11.07;4.93;;;;;;;;;;5054880;28;20057;-55
2023/05/28 05:20:26;;;;;;;9.52;5.07;;;;;;;;;;5061413;28;20048;-58
2023/05/28 05:22:53;;;;;;;7.47;4.35;;;;;;;;;;5064565;28;20057;-58
2023/05/28 05:25:19;;;;;;;7.93;4.18;;;;;;;;;;5063754;28;20071;-58
2023/05/28 05:27:48;;;;;;;9.65;5.25;;;;;;;;;;5058953;28;20352;-59
2023/05/28 05:30:15;;;;;;;9.77;5.07;;;;;;;;;;5056727;28;20107;-57
2023/05/28 05:32:41;;;;;;;7.72;3.67;;;;;;;;;;5061051;28;20560;-58
2023/05/28 05:35:08;;;;;;;10.57;5.07;;;;;;;;;;5046688;28;20065;-58
2023/05/28 05:37:35;;;;;;;12.05;4.97;;;;;;;;;;5054319;28;20139;-57
2023/05/28 05:40:05;;;;;;;6.00;4.15;;;;;;;;;;5061104;28;20402;-56
2023/05/28 05:42:31;;;;;;;9.02;3.85;;;;;;;;;;5052190;28;20139;-56
2023/05/28 05:44:58;;;;;;;11.40;4.45;;;;;;;;;;5056535;28;20106;-57
2023/05/28 05:47:24;;;;;;;7.38;4.25;;;;;;;;;;5056999;28;20053;-59
2023/05/28 05:49:51;;;;;;;11.57;4.90;;;;;;;;;;5059864;28;20059;-59
2023/05/28 05:52:17;;;;;;;10.32;4.68;;;;;;;;;;5063648;28;20091;-56
2023/05/28 05:54:44;;;;;;;9.23;4.72;;;;;;;;;;5060994;28;20111;-56
2023/05/28 05:57:10;;;;;;;12.38;4.63;;;;;;;;;;5046964;28;20053;-59
2023/05/28 05:59:37;;;;;;;8.80;4.68;;;;;;;;;;5059323;28;20513;-57
2023/05/28 06:02:04;;;;;;;8.52;4.43;;;;;;;;;;5048713;28;20053;-59
2023/05/28 06:04:33;;;;;;;11.45;5.50;;;;;;;;;;5051125;28;20054;-57
2023/05/28 06:07:04;;;;;;;8.18;4.53;;;;;;;;;;5047587;28;20053;-58
2023/05/28 06:09:31;;;;;;;13.18;5.10;;;;;;;;;;5062744;28;20829;-57
2023/05/28 06:11:57;;;;;;;8.68;4.70;;;;;;;;;;5060034;28;20057;-59
2023/05/28 06:14:24;;;;;;;16.25;5.18;;;;;;;;;;5062114;28;20597;-57
2023/05/28 06:16:51;;;;;;;12.43;5.65;;;;;;;;;;5060389;28;20126;-58
2023/05/28 06:19:18;;;;;;;8.57;4.57;;;;;;;;;;5059435;28;20115;-58
2023/05/28 06:21:44;;;;;;;10.88;4.53;;;;;;;;;;5052611;28;20859;-58
2023/05/28 06:24:11;;;;;;;11.35;4.40;;;;;;;;;;5055542;28;20184;-57
2023/05/28 06:26:37;;;;;;;9.45;4.50;;;;;;;;;;5055532;28;20053;-57
2023/05/28 06:29:06;;;;;;;12.95;5.00;;;;;;;;;;5060098;28;20052;-58
2023/05/28 06:31:32;;;;;;;11.70;4.88;;;;;;;;;;5060639;28;20471;-58
2023/05/28 06:33:58;;;;;;;10.93;4.63;;;;;;;;;;5051491;28;20139;-59
2023/05/28 06:36:25;;;;;;;10.35;6.07;;;;;;;;;;5061508;28;20093;-58
2023/05/28 06:38:51;;;;;;;11.20;4.90;;;;;;;;;;5061603;28;20103;-58
2023/05/28 06:41:18;;;;;;;11.40;4.85;;;;;;;;;;5055355;28;20402;-57
2023/05/28 06:43:45;;;;;;;8.52;3.92;;;;;;;;;;5066635;28;20181;-59
2023/05/28 06:46:11;;;;;;;10.35;4.82;;;;;;;;;;5058990;28;20079;-59
2023/05/28 06:48:38;;;;;;;11.77;4.78;;;;;;;;;;5054815;28;20623;-58
2023/05/28 06:51:04;;;;;;;8.20;4.10;;;;;;;;;;5054615;28;20494;-59
2023/05/28 06:53:31;;;;;;;9.25;4.65;;;;;;;;;;5060065;28;20660;-57
2023/05/28 06:55:58;;;;;;;11.20;4.68;;;;;;;;;;5059903;28;20087;-59
2023/05/28 06:58:24;;;;;;;12.63;4.80;;;;;;;;;;5062508;28;20126;-59
2023/05/28 07:00:51;;;;;;;12.10;5.95;;;;;;;;;;5058709;28;20561;-59
2023/05/28 07:03:17;;;;;;;11.13;4.63;;;;;;;;;;5059554;28;20057;-58
2023/05/28 07:05:43;;;;;;;11.77;4.50;;;;;;;;;;5058411;28;20049;-58
2023/05/28 07:08:10;;;;;;;8.90;3.95;;;;;;;;;;5051995;28;20059;-57
2023/05/28 07:10:37;;;;;;;10.48;5.07;;;;;;;;;;5055327;28;20048;-58
2023/05/28 07:13:03;;;;;;;5.35;4.28;;;;;;;;;;5042837;28;20573;-59
2023/05/28 07:15:29;;;;;;;10.70;5.55;;;;;;;;;;5059696;28;20057;-59
2023/05/28 07:17:56;;;;;;;8.23;4.40;;;;;;;;;;5060743;28;20600;-58
2023/05/28 07:20:22;;;;;;;12.43;4.30;;;;;;;;;;5051494;28;20136;-59
2023/05/28 07:22:49;;;;;;;9.55;4.43;;;;;;;;;;5049719;28;20064;-59
2023/05/28 07:25:15;;;;;;;9.57;4.47;;;;;;;;;;5057206;28;20135;-59
2023/05/28 07:27:41;;;;;;;8.68;4.32;;;;;;;;;;5061696;28;20049;-59
2023/05/28 07:30:08;;;;;;;10.88;4.18;;;;;;;;;;5060140;28;20053;-57
2023/05/28 07:32:34;;;;;;;8.82;5.45;;;;;;;;;;5050862;28;20522;-56
2023/05/28 07:35:01;;;;;;;9.13;4.00;;;;;;;;;;5060502;28;20298;-59
2023/05/28 07:37:27;;;;;;;11.27;4.57;;;;;;;;;;5063463;28;20106;-58
2023/05/28 07:39:53;;;;;;;11.77;4.15;;;;;;;;;;5062021;28;20057;-59
2023/05/28 07:42:20;;;;;;;14.20;4.57;;;;;;;;;;5065112;28;20251;-59
2023/05/28 07:44:47;;;;;;;8.80;4.47;;;;;;;;;;5063575;28;20136;-58
2023/05/28 07:47:13;;;;;;;9.20;4.35;;;;;;;;;;5063450;28;21402;-59
2023/05/28 07:49:39;;;;;;;6.68;3.38;;;;;;;;;;5062767;28;20053;-58
2023/05/28 07:52:06;;;;;;;7.30;4.10;;;;;;;;;;5060768;28;20140;-58
2023/05/28 07:54:33;;;;;;;7.88;4.18;;;;;;;;;;5062212;28;20872;-59
2023/05/28 07:57:00;;;;;;;9.68;4.78;;;;;;;;;;5064005;28;20052;-59
2023/05/28 07:59:26;;;;;;;6.18;3.25;;;;;;;;;;5060769;28;20052;-59
2023/05/28 08:01:53;;;;;;;6.45;4.07;;;;;;;;;;5051768;28;20060;-57
2023/05/28 08:04:19;;;;;;;6.43;3.75;;;;;;;;;;5065082;28;20056;-57
2023/05/28 08:06:46;;;;;;;5.15;3.35;;;;;;;;;;5060060;28;20048;-58
2023/05/28 08:09:15;;;;;;;6.15;3.58;;;;;;;;;;5064920;28;20118;-58
2023/05/28 08:11:42;;;;;;;8.75;4.03;;;;;;;;;;5065369;28;20501;-56
2023/05/28 08:14:08;;;;;;;15.93;4.53;;;;;;;;;;5063000;28;20053;-55
2023/05/28 08:16:35;;;;;;;8.60;4.10;;;;;;;;;;5063075;28;20057;-54
2023/05/28 08:19:01;;;;;;;11.52;5.13;;;;;;;;;;5063435;28;20053;-54
2023/05/28 08:21:28;;;;;;;8.30;3.97;;;;;;;;;;5060483;28;20109;-56
2023/05/28 08:23:54;;;;;;;5.93;3.50;;;;;;;;;;5057661;28;20107;-53
2023/05/28 08:26:21;;;;;;;8.38;4.22;;;;;;;;;;5065788;28;20049;-52
2023/05/28 08:28:47;;;;;;;6.85;3.58;;;;;;;;;;5064733;28;20577;-52
2023/05/28 08:31:14;;;;;;;10.40;3.88;;;;;;;;;;5065142;28;20467;-53
2023/05/28 08:33:40;;;;;;;7.55;4.28;;;;;;;;;;5065882;28;20057;-53
2023/05/28 08:36:07;;;;;;;9.40;3.78;;;;;;;;;;5056661;28;20053;-53
2023/05/28 08:38:33;;;;;;;9.18;4.03;;;;;;;;;;5069772;28;20049;-53
2023/05/28 08:41:00;;;;;;;7.35;3.70;;;;;;;;;;5065227;28;20690;-59
2023/05/28 08:43:27;;;;;;;9.00;3.83;;;;;;;;;;5065180;28;20081;-56
2023/05/28 08:45:55;;;;;;;8.00;3.70;;;;;;;;;;5064070;28;20107;-54
2023/05/28 08:48:22;;;;;;;10.50;4.43;;;;;;;;;;5062350;28;20147;-52
2023/05/28 08:50:52;;;;;;;14.68;3.75;;;;;;;;;;5064850;28;20072;-58
2023/05/28 08:53:20;;;;;;;7.63;3.60;;;;;;;;;;5058113;28;20499;-53
2023/05/28 08:55:47;;;;;;;15.35;4.22;;;;;;;;;;5045241;28;20061;-54
2023/05/28 08:58:14;;;;;;;8.38;3.67;;;;;;;;;;5051800;28;20162;-56
2023/05/28 09:00:40;;;;;;;8.48;3.88;;;;;;;;;;5064780;28;20050;-55
2023/05/28 09:03:07;;;;;;;11.52;4.28;;;;;;;;;;5062848;28;20045;-58
2023/05/28 09:05:36;;;;;;;10.68;4.32;;;;;;;;;;5044580;28;20058;-57
2023/05/28 09:08:07;;;;;;;10.18;4.00;;;;;;;;;;5063627;28;20111;-55
2023/05/28 09:10:36;;;;;;;7.90;3.40;;;;;;;;;;5058750;28;20103;-57
2023/05/28 09:13:04;;;;;;;10.40;3.90;;;;;;;;;;5058516;28;20075;-58
2023/05/28 09:15:31;;;;;;;6.15;3.22;;;;;;;;;;5063879;28;20061;-57
2023/05/28 09:18:00;;;;;;;8.82;3.20;;;;;;;;;;5062017;28;20396;-56
2023/05/28 09:20:27;;;;;;;11.10;4.28;;;;;;;;;;5057975;28;20057;-37
2023/05/28 09:23:00;;;;;;;9.30;4.13;;;;;;;;;;5064555;28;20110;-58
2023/05/28 09:25:28;;;;;;;9.68;3.67;;;;;;;;;;5065078;28;20518;-58
2023/05/28 09:27:56;;;;;;;6.10;3.47;;;;;;;;;;5064901;28;20474;-59
2023/05/28 09:30:23;;;;;;;7.97;3.20;;;;;;;;;;5064717;28;20809;-59
2023/05/28 09:32:57;;;;;;;5.90;3.72;;;;;;;;;;5065189;28;20049;-58
2023/05/28 09:35:24;;;;;;;7.75;3.83;;;;;;;;;;5063979;28;20107;-57
2023/05/28 09:37:58;;;;;;;10.77;3.28;;;;;;;;;;5063688;28;20518;-59
2023/05/28 09:40:25;;;;;;;7.97;4.50;;;;;;;;;;5065207;28;20052;-59
2023/05/28 09:42:52;;;;;;;6.95;3.50;;;;;;;;;;5063880;28;20065;-59
2023/05/28 09:45:25;;;;;;;11.73;3.78;;;;;;;;;;5063903;28;20077;-59
2023/05/28 09:47:51;;;;;;;7.43;2.85;;;;;;;;;;5063903;28;20626;-60
2023/05/28 09:50:18;;;;;;;8.25;3.30;;;;;;;;;;5064601;28;20060;-59
2023/05/28 09:52:45;;;;;;;6.43;3.30;;;;;;;;;;5064425;28;20049;-59
2023/05/28 09:55:18;;;;;;;5.90;3.15;;;;;;;;;;5064580;28;20057;-58
2023/05/28 09:57:45;;;;;;;10.18;3.70;;;;;;;;;;5064168;28;20059;-59
2023/05/28 10:00:21;;;;;;;8.82;3.53;;;;;;;;;;5063956;28;20140;-59
2023/05/28 10:02:57;;;;;;;7.80;3.03;;;;;;;;;;5063780;28;20080;-56
2023/05/28 10:05:26;;;;;;;4.95;3.20;;;;;;;;;;5064575;28;20805;-59
2023/05/28 10:07:53;;;;;;;9.98;3.53;;;;;;;;;;5063395;28;20152;-59
2023/05/28 10:10:20;;;;;;;5.25;2.53;;;;;;;;;;5064278;28;20110;-59
2023/05/28 10:12:47;;;;;;;4.80;2.83;;;;;;;;;;5063956;28;20053;-59
2023/05/28 10:15:14;;;;;;;9.57;3.33;;;;;;;;;;5062830;28;20056;-59
2023/05/28 10:17:41;;;;;;;5.68;2.72;;;;;;;;;;5063636;28;20057;-59
2023/05/28 10:20:10;;;;;;;6.95;3.00;;;;;;;;;;5063042;28;20060;-60
2023/05/28 10:22:39;;;;;;;8.05;3.10;;;;;;;;;;5063455;28;20056;-59
2023/05/28 10:25:07;;;;;;;5.00;2.20;;;;;;;;;;5062275;28;20076;-59
2023/05/28 10:27:42;;;;;;;6.68;3.13;;;;;;;;;;5063394;28;20060;-59
2023/05/28 10:30:09;;;;;;;5.88;2.83;;;;;;;;;;5063195;28;20098;-59
2023/05/28 10:32:40;;;;;;;6.85;2.40;;;;;;;;;;5063159;28;20049;-58
2023/05/28 10:35:11;;;;;;;4.22;2.70;;;;;;;;;;5063478;28;20099;-59
2023/05/28 10:37:38;;;;;;;6.03;2.63;;;;;;;;;;5063988;28;20076;-59
2023/05/28 10:40:07;;;;;;;4.90;2.42;;;;;;;;;;5066042;28;20210;-58
2023/05/28 10:42:38;;;;;;;2.95;2.00;;;;;;;;;;5064950;28;20897;-60
2023/05/28 10:45:06;;;;;;;4.38;2.70;;;;;;;;;;5062578;28;20118;-58
2023/05/28 10:47:33;;;;;;;5.50;2.70;;;;;;;;;;5063194;28;20140;-58
2023/05/28 10:50:09;;;;;;;6.57;2.42;;;;;;;;;;5061752;28;20076;-59
2023/05/28 10:52:39;;;;;;;4.53;2.10;;;;;;;;;;5061317;28;20560;-59
2023/05/28 10:55:09;;;;;;;5.38;2.50;;;;;;;;;;5063466;28;20137;-59
2023/05/28 10:57:42;;;;;;;7.93;2.50;;;;;;;;;;5063105;28;20064;-58
2023/05/28 11:00:15;;;;;;;4.75;2.65;;;;;;;;;;5093404;28;20055;-58
2023/05/28 11:02:43;;;;;;;5.40;2.33;;;;;;;;;;5063664;28;20161;-59
2023/05/28 11:05:10;;;;;;;8.85;3.50;;;;;;;;;;5063280;28;20053;-59
2023/05/28 11:07:36;;;;;;;7.38;3.22;;;;;;;;;;5062621;28;20053;-59
2023/05/28 11:10:06;;;;;;;5.82;2.85;;;;;;;;;;5062380;28;20053;-59
2023/05/28 11:12:35;;;;;;;4.55;2.38;;;;;;;;;;5062454;28;20049;-59
2023/05/28 11:15:02;;;;;;;5.90;2.83;;;;;;;;;;5042333;28;20050;-59
2023/05/28 11:17:28;;;;;;;5.45;3.15;;;;;;;;;;5043370;28;20057;-59
2023/05/28 11:19:55;;;;;;;5.28;2.85;;;;;;;;;;5063229;28;20053;-60
2023/05/28 11:22:21;;;;;;;4.70;2.30;;;;;;;;;;5061186;28;20140;-58
2023/05/28 11:24:50;;;;;;;6.25;2.67;;;;;;;;;;5063247;28;20056;-60
2023/05/28 11:27:17;;;;;;;6.80;3.58;;;;;;;;;;5062550;28;20768;-59
2023/05/28 11:29:43;;;;;;;4.90;3.47;;;;;;;;;;5064943;28;20110;-58
2023/05/28 11:32:10;;;;;;;3.35;2.63;;;;;;;;;;5062791;28;20052;-60
2023/05/28 11:34:36;;;;;;;8.18;3.10;;;;;;;;;;5062622;28;20370;-60
2023/05/28 11:37:05;;;;;;;7.38;3.10;;;;;;;;;;5062877;28;20139;-58
2023/05/28 11:39:31;;;;;;;8.88;2.70;;;;;;;;;;5066199;28;20607;-59
2023/05/28 11:41:58;;;;;;;4.70;2.67;;;;;;;;;;5061393;28;20115;-59
2023/05/28 11:44:24;;;;;;;6.00;2.67;;;;;;;;;;5062449;28;20078;-59
2023/05/28 11:46:55;;;;;;;6.85;2.90;;;;;;;;;;5059247;28;20051;-60
2023/05/28 11:49:22;;;;;;;7.00;3.22;;;;;;;;;;5058683;28;20132;-58
2023/05/28 11:51:52;;;;;;;5.13;2.75;;;;;;;;;;5060302;28;20049;-60
2023/05/28 11:54:18;;;;;;;10.43;3.67;;;;;;;;;;5062404;28;20084;-58
2023/05/28 11:56:47;;;;;;;11.82;3.05;;;;;;;;;;5061188;28;20132;-57
2023/05/28 11:59:15;;;;;;;5.25;2.85;;;;;;;;;;5060216;28;20592;-59
2023/05/28 12:01:41;;;;;;;10.30;3.35;;;;;;;;;;5058874;28;20053;-59
2023/05/28 12:04:07;;;;;;;6.47;3.03;;;;;;;;;;5062454;28;20517;-58
2023/05/28 12:06:48;;;;;;;3.35;2.35;;;;;;;;;;5061518;28;20064;-61
2023/05/28 12:09:15;;;;;;;2.75;2.40;;;;;;;;;;5059898;28;20049;-60
2023/05/28 12:11:41;;;;;;;4.07;2.60;;;;;;;;;;5061884;28;20107;-59
2023/05/28 12:14:11;;;;;;;6.13;2.88;;;;;;;;;;5061309;28;20578;-59
2023/05/28 12:16:46;;;;;;;5.18;3.00;;;;;;;;;;5061016;28;20084;-60
2023/05/28 12:19:15;;;;;;;3.92;2.80;;;;;;;;;;5059668;28;20498;-60
2023/05/28 12:21:42;;;;;;;6.20;3.05;;;;;;;;;;5063635;28;20533;-56
2023/05/28 12:24:14;;;;;;;7.45;3.13;;;;;;;;;;5065527;28;20204;-57
2023/05/28 12:26:41;;;;;;;8.90;3.33;;;;;;;;;;5066048;28;20377;-59
2023/05/28 12:29:08;;;;;;;7.47;3.40;;;;;;;;;;5063134;28;20057;-57
2023/05/28 12:31:35;;;;;;;4.90;2.72;;;;;;;;;;5049272;28;20164;-59
2023/05/28 12:34:01;;;;;;;9.13;3.65;;;;;;;;;;5045346;28;20181;-58
2023/05/28 12:36:28;;;;;;;4.97;2.83;;;;;;;;;;5050141;28;20525;-58
2023/05/28 12:38:54;;;;;;;5.43;2.70;;;;;;;;;;5065076;28;20111;-59
2023/05/28 12:41:21;;;;;;;6.35;3.65;;;;;;;;;;5065503;28;20063;-58
2023/05/28 12:43:47;;;;;;;6.47;3.53;;;;;;;;;;5062658;28;20426;-59
2023/05/28 12:46:14;;;;;;;5.68;2.85;;;;;;;;;;5063956;28;20045;-56
2023/05/28 12:48:40;;;;;;;3.63;2.60;;;;;;;;;;5060543;28;20053;-59
2023/05/28 12:51:07;;;;;;;4.25;3.05;;;;;;;;;;5060766;28;20064;-59
2023/05/28 12:53:34;;;;;;;5.28;3.17;;;;;;;;;;5064881;28;20106;-58
2023/05/28 12:56:00;;;;;;;4.68;3.10;;;;;;;;;;5063552;28;20132;-59
2023/05/28 12:58:27;;;;;;;4.80;2.83;;;;;;;;;;5064754;28;20049;-58
2023/05/28 13:00:54;;;;;;;4.18;2.28;;;;;;;;;;5063680;28;20104;-59
2023/05/28 13:03:20;;;;;;;6.28;2.88;;;;;;;;;;5065449;28;20442;-58
2023/05/28 13:05:48;;;;;;;6.22;3.05;;;;;;;;;;5062844;28;20048;-59
2023/05/28 13:08:15;;;;;;;3.78;2.75;;;;;;;;;;5063978;28;20896;-59
2023/05/28 13:10:41;;;;;;;6.85;3.08;;;;;;;;;;5063220;28;20061;-59
2023/05/28 13:13:07;;;;;;;7.15;3.83;;;;;;;;;;5055046;28;20049;-58
2023/05/28 13:15:34;;;;;;;5.78;2.88;;;;;;;;;;5052059;28;20572;-59
2023/05/28 13:18:00;;;;;;;6.57;3.33;;;;;;;;;;5052620;28;20502;-58
2023/05/28 13:20:27;;;;;;;6.68;3.33;;;;;;;;;;5063968;28;20057;-55
2023/05/28 13:22:53;;;;;;;5.82;2.88;;;;;;;;;;5065070;28;20061;-56
2023/05/28 13:25:20;;;;;;;5.55;3.05;;;;;;;;;;5064349;28;20083;-55
2023/05/28 13:27:47;;;;;;;6.00;3.00;;;;;;;;;;5064247;28;20111;-56
2023/05/28 13:30:14;;;;;;;4.70;2.85;;;;;;;;;;5064292;28;20460;-56
2023/05/28 13:32:40;;;;;;;3.90;2.63;;;;;;;;;;5062942;28;20110;-58
2023/05/28 13:35:07;;;;;;;6.80;2.88;;;;;;;;;;5064898;28;20470;-54
2023/05/28 13:37:33;;;;;;;6.78;3.35;;;;;;;;;;5063864;28;20049;-57
2023/05/28 13:40:00;;;;;;;4.25;3.00;;;;;;;;;;5062303;28;20048;-57
2023/05/28 13:42:27;;;;;;;4.95;2.65;;;;;;;;;;5062678;28;20053;-58
2023/05/28 13:44:54;;;;;;;5.88;2.60;;;;;;;;;;5062519;28;20136;-58
2023/05/28 13:47:21;;;;;;;7.75;2.85;;;;;;;;;;5064536;28;20053;-58
2023/05/28 13:49:47;;;;;;;6.13;3.05;;;;;;;;;;5063539;28;20064;-58
2023/05/28 13:52:13;;;;;;;9.13;2.97;;;;;;;;;;5063777;28;20053;-58
2023/05/28 13:54:43;;;;;;;5.20;2.72;;;;;;;;;;5069878;28;20138;-56
2023/05/28 13:57:09;;;;;;;4.53;3.05;;;;;;;;;;5074867;28;20153;-61
2023/05/28 13:59:36;;;;;;;5.93;2.90;;;;;;;;;;5063642;28;20049;-58
2023/05/28 14:02:03;;;;;;;6.28;2.67;;;;;;;;;;5064228;28;20076;-58
2023/05/28 14:04:29;;;;;;;6.63;2.75;;;;;;;;;;5080447;28;20087;-56
2023/05/28 14:06:56;;;;;;;3.50;2.42;;;;;;;;;;5084230;28;20080;-58
2023/05/28 14:09:22;;;;;;;5.85;2.90;;;;;;;;;;5076973;28;20126;-57
2023/05/28 14:11:49;;;;;;;4.13;2.47;;;;;;;;;;5060560;28;20541;-59
2023/05/28 14:14:35;;;;;;;5.13;2.67;;;;;;;;;;5059532;28;20049;-58
2023/05/28 14:17:02;;;;;;;6.97;3.45;;;;;;;;;;5044416;28;20140;-56
2023/05/28 14:19:28;;;;;;;6.65;3.05;;;;;;;;;;5056703;28;20499;-59
2023/05/28 14:21:55;;;;;;;4.15;2.85;;;;;;;;;;5064031;28;20207;-59
2023/05/28 14:24:21;;;;;;;5.88;2.92;;;;;;;;;;5063742;28;20863;-55
2023/05/28 14:26:48;;;;;;;5.50;3.00;;;;;;;;;;5060717;28;20057;-55
2023/05/28 14:29:14;;;;;;;4.13;3.20;;;;;;;;;;5080177;28;20053;-58
2023/05/28 14:31:41;;;;;;;5.95;2.88;;;;;;;;;;5061197;28;20442;-58
2023/05/28 14:34:07;;;;;;;6.65;3.85;;;;;;;;;;5060055;28;20059;-57
2023/05/28 14:36:35;;;;;;;5.07;2.90;;;;;;;;;;5063197;28;20114;-58
2023/05/28 14:39:01;;;;;;;5.03;2.42;;;;;;;;;;5057642;28;20232;-58